Time;durP1;ratioP1;P1;durP2;ratioP2;P2;SDS_P1;SDS_P2;PMS_P1;PMS_P2;Temp;Humidity;BMP_temperature;BMP_pressure;BME280_temperature;BME280_humidity;BME280_pressure;Samples;Min_cycle;Max_cycle;Signal;HPM_P1;HPM_P2
2021/06/06 00:01:02;;;;;;;16.65;10.95;;;19.80;65.50;;;;;;4864127;29;20054;-79
2021/06/06 00:03:34;;;;;;;17.65;10.15;;;19.70;65.60;;;;;;4864009;29;20416;-78
2021/06/06 00:06:03;;;;;;;16.42;10.73;;;19.80;65.60;;;;;;4864237;29;20065;-75
2021/06/06 00:08:29;;;;;;;18.75;10.85;;;19.80;65.50;;;;;;4880852;29;20041;-76
2021/06/06 00:11:00;;;;;;;14.45;10.10;;;19.80;65.60;;;;;;4881001;29;20209;-76
2021/06/06 00:13:27;;;;;;;18.75;10.27;;;19.70;65.80;;;;;;4864083;29;20041;-77
2021/06/06 00:15:54;;;;;;;13.25;10.60;;;19.70;65.60;;;;;;4863994;29;20044;-76
2021/06/06 00:18:20;;;;;;;14.75;10.98;;;19.80;65.60;;;;;;4863793;29;20033;-77
2021/06/06 00:20:46;;;;;;;16.23;11.05;;;19.80;65.40;;;;;;4880568;29;20060;-77
2021/06/06 00:23:12;;;;;;;16.30;10.85;;;19.80;65.60;;;;;;4863978;29;20045;-77
2021/06/06 00:25:39;;;;;;;17.92;10.60;;;19.70;65.60;;;;;;4863676;29;20063;-75
2021/06/06 00:28:05;;;;;;;14.25;10.45;;;19.70;65.70;;;;;;4848387;29;20039;-76
2021/06/06 00:30:32;;;;;;;14.65;10.93;;;19.50;66.40;;;;;;4863315;29;20068;-76
2021/06/06 00:32:58;;;;;;;13.38;10.63;;;19.40;66.90;;;;;;4863506;29;20037;-77
2021/06/06 00:35:25;;;;;;;16.25;11.50;;;19.30;67.30;;;;;;4863661;29;20056;-75
2021/06/06 00:37:51;;;;;;;16.48;10.50;;;19.30;67.50;;;;;;4863765;29;20529;-75
2021/06/06 00:40:21;;;;;;;15.68;10.77;;;19.30;67.70;;;;;;4863778;29;20044;-72
2021/06/06 00:42:49;;;;;;;13.00;10.38;;;19.30;67.70;;;;;;4863462;29;20045;-74
2021/06/06 00:45:23;;;;;;;13.40;9.95;;;19.20;68.00;;;;;;4863504;29;20032;-73
2021/06/06 00:47:49;;;;;;;13.80;10.27;;;19.30;67.80;;;;;;4863658;29;20045;-73
2021/06/06 00:50:29;;;;;;;15.35;10.27;;;19.30;67.30;;;;;;4873987;29;20039;-74
2021/06/06 00:53:01;;;;;;;14.20;10.90;;;19.30;67.50;;;;;;4880591;29;20040;-73
2021/06/06 00:55:28;;;;;;;15.73;10.95;;;19.20;67.60;;;;;;4865806;29;20076;-76
2021/06/06 00:57:55;;;;;;;16.17;12.25;;;19.30;67.40;;;;;;4881902;29;20041;-75
2021/06/06 01:00:30;;;;;;;17.13;11.75;;;19.30;67.20;;;;;;4882125;29;20573;-77
2021/06/06 01:02:58;;;;;;;17.73;12.95;;;19.30;67.30;;;;;;4881776;29;20131;-77
2021/06/06 01:05:52;;;;;;;19.50;13.13;;;19.30;67.10;;;;;;4881798;29;20386;-76
2021/06/06 01:08:20;;;;;;;18.08;13.10;;;19.30;67.50;;;;;;4865996;29;20118;-76
2021/06/06 01:10:56;;;;;;;18.50;13.02;;;19.20;67.90;;;;;;4881648;29;20131;-77
2021/06/06 01:13:24;;;;;;;17.65;13.30;;;19.10;68.00;;;;;;4881651;29;20127;-76
2021/06/06 01:16:06;;;;;;;22.30;14.63;;;19.10;67.90;;;;;;4866713;29;20079;-76
2021/06/06 01:18:41;;;;;;;23.17;14.60;;;19.20;67.80;;;;;;4866112;29;20092;-76
2021/06/06 01:21:26;;;;;;;16.63;13.20;;;19.20;67.70;;;;;;4881811;29;20079;-75
2021/06/06 01:24:00;;;;;;;19.85;13.43;;;19.30;67.20;;;;;;4881646;29;20139;-79
2021/06/06 01:26:34;;;;;;;16.50;11.80;;;19.50;66.80;;;;;;4881261;29;20505;-75
2021/06/06 01:29:13;;;;;;;19.67;12.45;;;19.50;66.70;;;;;;4881248;29;20058;-75
2021/06/06 01:31:43;;;;;;;17.10;12.00;;;19.70;66.60;;;;;;4898311;29;20108;-75
2021/06/06 01:34:12;;;;;;;14.35;11.27;;;19.60;66.70;;;;;;4896950;29;20131;-74
2021/06/06 01:36:50;;;;;;;13.48;10.18;;;19.70;66.90;;;;;;4881006;29;20037;-76
2021/06/06 01:39:24;;;;;;;12.68;11.10;;;19.70;66.80;;;;;;4866015;29;20063;-76
2021/06/06 01:42:00;;;;;;;14.10;10.90;;;19.70;66.80;;;;;;4897964;29;20048;-75
2021/06/06 01:44:31;;;;;;;16.48;9.90;;;19.70;66.90;;;;;;4881198;29;20036;-75
2021/06/06 01:47:11;;;;;;;12.15;9.88;;;19.60;67.10;;;;;;4881197;29;20043;-74
2021/06/06 01:49:49;;;;;;;17.38;9.50;;;19.50;67.30;;;;;;4881069;29;20037;-75
2021/06/06 01:52:24;;;;;;;20.15;9.63;;;19.60;67.10;;;;;;4896732;29;20036;-74
2021/06/06 01:54:52;;;;;;;13.30;9.65;;;19.40;67.30;;;;;;4881296;29;20405;-72
2021/06/06 01:57:22;;;;;;;14.57;8.80;;;19.50;67.50;;;;;;4896453;29;20037;-75
2021/06/06 01:59:57;;;;;;;12.68;9.27;;;19.50;67.40;;;;;;4881710;29;20405;-74
2021/06/06 02:02:23;;;;;;;14.80;8.93;;;19.50;67.40;;;;;;4880953;29;20135;-75
2021/06/06 02:04:50;;;;;;;13.65;8.82;;;19.50;67.40;;;;;;4896603;29;20064;-75
2021/06/06 02:07:30;;;;;;;12.60;8.75;;;19.40;67.30;;;;;;4896431;29;20096;-75
2021/06/06 02:10:18;;;;;;;9.82;8.32;;;19.50;67.10;;;;;;4895780;29;20047;-75
2021/06/06 02:12:50;;;;;;;11.05;8.85;;;19.60;67.00;;;;;;4880918;29;20087;-76
2021/06/06 02:15:30;;;;;;;10.82;7.55;;;19.60;67.10;;;;;;4881171;29;20044;-73
2021/06/06 02:18:19;;;;;;;13.07;9.07;;;19.70;66.90;;;;;;4896364;29;20044;-74
2021/06/06 02:20:48;;;;;;;9.95;7.88;;;19.90;66.50;;;;;;4896097;29;20454;-74
2021/06/06 02:23:20;;;;;;;12.35;7.63;;;20.10;66.00;;;;;;4880637;29;20048;-74
2021/06/06 02:25:48;;;;;;;9.60;7.75;;;20.30;65.70;;;;;;4896313;29;20064;-74
2021/06/06 02:28:29;;;;;;;;;;;20.40;65.30;;;;;;4866854;29;20573;-72
2021/06/06 02:31:21;;;;;;;10.20;6.72;;;20.60;65.10;;;;;;4896028;29;19979;-72
2021/06/06 02:34:13;;;;;;;8.68;6.70;;;20.80;64.80;;;;;;4872122;29;20512;-73
2021/06/06 02:36:47;;;;;;;12.63;7.68;;;20.90;64.40;;;;;;4880724;29;20525;-74
2021/06/06 02:39:24;;;;;;;9.93;7.18;;;21.00;64.20;;;;;;4880542;29;20132;-74
2021/06/06 02:42:22;;;;;;;8.55;6.55;;;21.10;63.90;;;;;;4897447;29;20044;-74
2021/06/06 02:44:56;;;;;;;7.60;6.53;;;21.30;63.60;;;;;;4880851;29;20497;-74
2021/06/06 02:47:34;;;;;;;7.80;6.30;;;21.30;63.30;;;;;;4880928;29;20044;-74
2021/06/06 02:50:19;;;;;;;10.98;6.53;;;21.40;62.90;;;;;;4880609;29;20048;-74
2021/06/06 02:52:56;;;;;;;10.48;6.28;;;21.50;62.60;;;;;;4865277;29;20036;-73
2021/06/06 02:55:33;;;;;;;8.00;5.93;;;21.60;62.40;;;;;;4880459;29;20048;-73
2021/06/06 02:58:29;;;;;;;6.00;5.40;;;21.70;62.20;;;;;;4880466;29;20033;-74
2021/06/06 03:01:00;;;;;;;10.60;6.43;;;21.80;62.00;;;;;;4860161;29;20118;-74
2021/06/06 03:03:31;;;;;;;9.45;7.05;;;21.80;62.00;;;;;;4880435;29;20112;-74
2021/06/06 03:06:11;;;;;;;8.98;6.82;;;21.80;61.90;;;;;;4896055;29;20040;-73
2021/06/06 03:08:38;;;;;;;10.65;6.88;;;21.80;62.20;;;;;;4880248;29;20481;-73
2021/06/06 03:11:09;;;;;;;8.85;6.95;;;21.80;62.40;;;;;;4895922;29;20043;-75
2021/06/06 03:13:46;;;;;;;8.45;7.03;;;21.80;62.50;;;;;;4865001;29;20519;-72
2021/06/06 03:16:16;;;;;;;7.10;6.40;;;21.70;62.70;;;;;;4880186;29;20063;-73
2021/06/06 03:18:50;;;;;;;8.93;6.32;;;21.70;62.90;;;;;;4881486;29;20127;-74
2021/06/06 03:21:35;;;;;;;10.38;6.47;;;21.70;62.80;;;;;;4868405;29;20383;-73
2021/06/06 03:24:10;;;;;;;7.38;5.57;;;21.80;62.60;;;;;;4883831;29;20036;-73
2021/06/06 03:26:42;;;;;;;10.85;6.38;;;21.90;62.30;;;;;;4884181;29;20040;-73
2021/06/06 03:29:15;;;;;;;6.40;5.57;;;22.10;61.90;;;;;;4883544;29;20032;-73
2021/06/06 03:31:52;;;;;;;7.20;6.47;;;22.20;61.60;;;;;;4898699;29;20067;-73
2021/06/06 03:34:19;;;;;;;6.78;5.38;;;22.30;61.50;;;;;;4898790;29;20029;-74
2021/06/06 03:36:49;;;;;;;9.60;5.80;;;22.40;61.50;;;;;;4883382;29;20040;-73
2021/06/06 03:39:38;;;;;;;6.75;5.28;;;22.50;61.30;;;;;;4886090;29;20037;-74
2021/06/06 03:42:07;;;;;;;6.13;5.47;;;22.60;61.10;;;;;;4883175;29;20048;-73
2021/06/06 03:44:39;;;;;;;5.97;5.38;;;22.70;61.00;;;;;;4883097;29;20036;-74
2021/06/06 03:47:05;;;;;;;8.00;5.30;;;22.80;61.00;;;;;;4882893;29;20512;-74
2021/06/06 03:49:34;;;;;;;7.97;5.18;;;22.90;60.90;;;;;;4898662;29;20425;-73
2021/06/06 03:52:00;;;;;;;5.50;5.00;;;23.00;60.90;;;;;;4883096;29;20105;-79
2021/06/06 08:53:05;;;;;;;5.03;3.42;;;23.50;59.20;;;;;;4896217;29;20060;-75
2021/06/06 08:55:47;;;;;;;7.65;4.20;;;23.50;58.90;;;;;;4898034;29;20063;-74
2021/06/06 08:58:28;;;;;;;6.43;4.07;;;23.60;58.90;;;;;;4897994;29;20047;-74
2021/06/06 09:01:01;;;;;;;8.43;4.20;;;23.60;59.00;;;;;;4897847;29;20466;-73
2021/06/06 09:03:29;;;;;;;5.55;3.97;;;23.50;59.30;;;;;;4898519;29;20051;-74
2021/06/06 09:06:05;;;;;;;7.95;4.60;;;23.50;59.60;;;;;;4898130;29;20088;-73
2021/06/06 09:08:33;;;;;;;5.40;4.15;;;23.60;59.70;;;;;;4898213;29;20040;-73
2021/06/06 09:11:03;;;;;;;7.10;4.13;;;23.40;59.90;;;;;;4898088;29;20493;-73
2021/06/06 09:13:31;;;;;;;7.30;3.90;;;23.50;59.70;;;;;;4881787;29;20040;-74
2021/06/06 09:16:24;;;;;;;8.13;4.00;;;23.50;59.50;;;;;;4897838;29;20096;-74
2021/06/06 09:19:09;;;;;;;4.40;3.42;;;23.50;59.40;;;;;;4897984;29;20050;-72
2021/06/06 09:21:58;;;;;;;4.22;3.03;;;23.50;59.00;;;;;;4897863;29;20413;-72
2021/06/06 09:24:37;;;;;;;5.13;3.00;;;23.30;58.30;;;;;;4898306;29;20048;-74
2021/06/06 09:27:26;;;;;;;4.57;2.70;;;23.50;58.00;;;;;;4898259;29;20048;-74
2021/06/06 09:30:21;;;;;;;3.67;2.97;;;23.40;57.50;;;;;;4892781;29;20409;-74
2021/06/06 09:32:47;;;;;;;3.33;2.95;;;23.40;58.00;;;;;;4896917;29;20505;-74
2021/06/06 09:35:27;;;;;;;4.18;3.22;;;23.40;58.70;;;;;;4898150;29;20044;-74
2021/06/06 09:38:05;;;;;;;9.27;5.20;;;23.40;59.10;;;;;;4898323;29;20037;-74
2021/06/06 09:40:39;;;;;;;4.50;3.72;;;23.50;59.40;;;;;;4897903;29;20053;-72
2021/06/06 09:43:05;;;;;;;5.40;3.33;;;23.50;59.10;;;;;;4898142;29;20044;-73
2021/06/06 09:45:35;;;;;;;6.38;3.95;;;23.50;58.80;;;;;;4897977;29;20040;-72
2021/06/06 09:48:16;;;;;;;5.15;3.47;;;23.60;59.10;;;;;;4880921;29;20139;-74
2021/06/06 09:50:54;;;;;;;5.32;3.53;;;23.60;59.00;;;;;;4897775;29;20087;-74
2021/06/06 09:53:27;;;;;;;3.42;3.03;;;23.70;59.00;;;;;;4897666;29;20075;-74
2021/06/06 09:56:09;;;;;;;4.53;3.33;;;23.80;58.70;;;;;;4897905;29;20404;-74
2021/06/06 09:58:38;;;;;;;2.78;2.47;;;23.80;57.60;;;;;;4897741;29;20064;-74
2021/06/06 10:01:34;;;;;;;3.85;2.65;;;23.70;57.10;;;;;;4897360;29;20093;-74
2021/06/06 10:04:04;;;;;;;4.10;3.00;;;23.70;56.70;;;;;;4880792;29;20044;-74
2021/06/06 10:06:37;;;;;;;6.97;2.70;;;23.80;56.60;;;;;;4897789;29;20122;-74
2021/06/06 10:09:18;;;;;;;5.88;2.67;;;23.80;56.90;;;;;;4880745;29;20544;-74
2021/06/06 10:12:06;;;;;;;6.78;3.33;;;23.80;56.90;;;;;;4897091;29;20473;-72
2021/06/06 10:14:57;;;;;;;7.15;3.85;;;23.90;57.00;;;;;;4880782;29;20108;-75
2021/06/06 10:17:46;;;;;;;4.18;3.42;;;23.90;57.00;;;;;;4897739;29;20040;-72
2021/06/06 10:20:18;;;;;;;3.78;2.35;;;23.90;57.10;;;;;;4897253;29;20048;-75
2021/06/06 10:22:50;;;;;;;4.82;2.17;;;23.90;56.10;;;;;;4880619;29;20048;-74
2021/06/06 10:25:25;;;;;;;4.60;2.05;;;23.90;55.50;;;;;;4881121;29;20072;-75
2021/06/06 10:28:00;;;;;;;4.28;2.05;;;23.90;54.90;;;;;;4897391;29;20075;-75
2021/06/06 10:30:55;;;;;;;3.00;2.67;;;23.90;55.20;;;;;;4901084;29;20401;-78
2021/06/06 10:33:34;;;;;;;4.88;2.40;;;23.90;55.60;;;;;;4863527;29;20512;-79
2021/06/06 10:36:02;;;;;;;4.75;4.32;;;23.90;55.90;;;;;;4865601;29;20521;-76
2021/06/06 10:38:30;;;;;;;4.72;2.40;;;23.90;55.50;;;;;;4882208;29;20505;-75
2021/06/06 10:41:00;;;;;;;6.07;2.55;;;23.80;55.50;;;;;;4865359;29;20123;-78
2021/06/06 10:43:41;;;;;;;4.07;2.50;;;23.80;55.60;;;;;;4870546;29;20044;-79
2021/06/06 10:46:29;;;;;;;3.33;2.30;;;23.90;55.90;;;;;;4876044;29;20139;-82
2021/06/06 10:49:04;;;;;;;6.10;2.50;;;23.80;56.00;;;;;;4860539;29;20116;-80
2021/06/06 10:51:41;;;;;;;2.47;2.25;;;23.90;56.00;;;;;;4873149;29;20428;-78
2021/06/06 10:54:28;;;;;;;3.78;2.45;;;23.90;56.20;;;;;;4891717;29;20048;-85
2021/06/06 10:56:58;;;;;;;4.85;3.05;;;23.90;56.60;;;;;;4885408;29;20049;-79
2021/06/06 10:59:45;;;;;;;4.82;3.00;;;23.90;56.70;;;;;;4849836;29;20041;-79
2021/06/06 11:02:37;;;;;;;4.40;2.95;;;23.80;57.20;;;;;;4865331;29;20048;-82
2021/06/06 11:05:08;;;;;;;3.65;2.88;;;23.90;57.40;;;;;;4849850;29;20494;-79
2021/06/06 11:07:36;;;;;;;3.83;2.33;;;23.80;57.30;;;;;;4862519;29;20044;-80
2021/06/06 11:10:32;;;;;;;3.45;2.22;;;23.90;57.30;;;;;;4891644;29;20092;-81
2021/06/06 11:13:09;;;;;;;3.88;2.10;;;23.90;57.10;;;;;;4873395;29;20092;-81
2021/06/06 11:15:40;;;;;;;3.67;2.30;;;23.90;57.00;;;;;;4873781;29;20497;-81
2021/06/06 11:18:19;;;;;;;5.82;2.60;;;23.90;56.80;;;;;;4891676;29;20033;-80
2021/06/06 11:20:54;;;;;;;4.75;2.97;;;23.90;56.70;;;;;;4866691;29;20147;-80
2021/06/06 11:23:45;;;;;;;5.65;3.40;;;23.90;57.60;;;;;;4877364;29;20052;-78
2021/06/06 11:26:19;;;;;;;4.65;3.50;;;23.90;58.30;;;;;;4900336;29;20505;-72
2021/06/06 11:28:47;;;;;;;5.72;3.50;;;23.80;59.20;;;;;;4900182;29;20048;-73
2021/06/06 11:31:29;;;;;;;5.05;3.97;;;23.70;59.30;;;;;;4899963;29;20485;-73
2021/06/06 11:34:05;;;;;;;5.72;3.38;;;23.70;59.50;;;;;;4883352;29;20551;-89
2021/06/06 11:36:45;;;;;;;5.65;3.20;;;23.60;59.50;;;;;;4900356;29;20055;-81
2021/06/06 11:39:16;;;;;;;6.18;3.58;;;23.50;59.60;;;;;;4899703;29;20040;-80
2021/06/06 11:41:45;;;;;;;4.72;3.42;;;23.60;59.60;;;;;;4882920;29;20118;-79
2021/06/06 11:44:17;;;;;;;4.28;3.50;;;23.60;59.70;;;;;;4867757;29;20517;-80
2021/06/06 11:46:53;;;;;;;7.28;3.92;;;23.60;59.90;;;;;;4883063;29;20068;-80
2021/06/06 11:49:34;;;;;;;5.20;3.50;;;23.60;60.40;;;;;;4883108;29;20549;-74
2021/06/06 11:52:35;;;;;;;6.80;2.95;;;23.50;60.20;;;;;;4882907;29;20056;-74
2021/06/06 11:55:27;;;;;;;11.73;3.25;;;23.30;60.30;;;;;;4867572;29;20535;-74
2021/06/06 11:58:07;;;;;;;8.20;3.00;;;23.20;61.20;;;;;;4899771;29;20509;-74
2021/06/06 12:00:46;;;;;;;8.57;3.00;;;23.10;62.30;;;;;;4873259;29;20486;-74
2021/06/06 12:03:24;;;;;;;6.50;2.63;;;23.00;63.00;;;;;;4890004;29;20069;-74
2021/06/06 12:05:57;;;;;;;6.63;2.83;;;22.90;64.00;;;;;;4877847;29;20504;-73
2021/06/06 12:08:43;;;;;;;7.07;2.30;;;22.90;64.20;;;;;;4864168;29;20033;-76
2021/06/06 12:11:30;;;;;;;8.25;2.88;;;22.80;64.40;;;;;;4864400;29;20064;-74
2021/06/06 12:14:17;;;;;;;45.05;3.75;;;22.90;65.10;;;;;;4880845;29;20536;-77
2021/06/06 12:16:54;;;;;;;4.20;2.90;;;22.80;65.70;;;;;;4848630;29;20037;-75
2021/06/06 12:19:44;;;;;;;5.35;2.75;;;22.80;65.80;;;;;;4863973;29;20077;-75
2021/06/06 12:22:20;;;;;;;3.80;2.63;;;22.70;66.30;;;;;;4870341;29;20143;-74
2021/06/06 12:25:05;;;;;;;4.75;2.35;;;22.60;66.20;;;;;;4880470;29;20044;-75
2021/06/06 12:27:32;;;;;;;;;;;22.50;65.50;;;;;;4864019;29;20067;-73
2021/06/06 12:30:04;;;;;;;3.50;2.08;;;22.60;64.70;;;;;;4879465;29;20014;-74
2021/06/06 12:32:34;;;;;;;2.72;2.10;;;22.60;64.70;;;;;;4849183;29;20441;-72
2021/06/06 12:35:17;;;;;;;6.13;2.30;;;22.60;64.90;;;;;;4880622;29;20044;-72
2021/06/06 12:37:47;;;;;;;5.32;2.10;;;22.60;65.00;;;;;;4848337;29;20521;-75
2021/06/06 12:40:17;;;;;;;3.35;2.45;;;22.50;65.00;;;;;;4863569;29;20029;-74
2021/06/06 12:42:44;;;;;;;5.50;2.25;;;22.60;64.60;;;;;;4880343;29;20048;-76
2021/06/06 12:45:14;;;;;;;4.70;2.30;;;22.40;64.10;;;;;;4880155;29;20123;-78
2021/06/06 12:47:43;;;;;;;9.43;2.80;;;22.40;64.20;;;;;;4880648;29;20041;-76
2021/06/06 12:50:14;;;;;;;2.95;1.98;;;22.50;63.70;;;;;;4880293;29;20033;-76
2021/06/06 12:52:54;;;;;;;2.88;2.00;;;22.60;62.40;;;;;;4879321;29;20052;-76
2021/06/06 12:55:40;;;;;;;2.65;1.75;;;22.70;61.80;;;;;;4880414;29;20045;-72
2021/06/06 12:58:15;;;;;;;3.05;1.83;;;22.70;61.30;;;;;;4879990;29;20518;-76
2021/06/06 13:00:51;;;;;;;4.60;2.05;;;22.70;60.90;;;;;;4862970;29;20071;-75
2021/06/06 13:03:26;;;;;;;3.97;2.47;;;22.80;61.10;;;;;;4863120;29;20156;-81
2021/06/06 13:05:55;;;;;;;5.80;2.60;;;22.90;61.20;;;;;;4847736;29;20041;-76
2021/06/06 13:08:35;;;;;;;5.25;2.92;;;23.00;61.30;;;;;;4879967;29;20055;-79
2021/06/06 13:11:06;;;;;;;4.03;2.58;;;23.00;61.10;;;;;;4879874;29;20417;-77
2021/06/06 13:13:39;;;;;;;5.97;3.13;;;23.00;61.40;;;;;;4862775;29;20052;-81
2021/06/06 13:16:32;;;;;;;2.97;2.40;;;23.00;61.80;;;;;;4879793;29;20029;-84
2021/06/06 13:19:19;;;;;;;5.45;3.08;;;23.10;62.50;;;;;;4863141;29;20039;-86
2021/06/06 13:22:08;;;;;;;5.10;3.47;;;23.00;63.50;;;;;;4862670;29;20059;-79
2021/06/06 13:24:44;;;;;;;5.78;3.38;;;22.80;63.70;;;;;;4879240;29;20522;-78
2021/06/06 13:27:12;;;;;;;4.13;2.95;;;22.70;63.90;;;;;;4862696;29;20032;-80
2021/06/06 13:29:42;;;;;;;5.72;3.53;;;22.60;64.00;;;;;;4879805;29;20045;-79
2021/06/06 13:32:13;;;;;;;5.72;3.50;;;22.60;64.50;;;;;;4877999;29;20040;-91
2021/06/06 13:34:40;;;;;;;6.70;3.25;;;22.10;65.80;;;;;;4862326;29;20033;-81
2021/06/06 13:37:07;;;;;;;10.05;3.80;;;22.00;66.00;;;;;;4879481;29;20115;-74
2021/06/06 13:39:37;;;;;;;11.40;4.40;;;21.90;67.40;;;;;;4877750;29;20041;-74
2021/06/06 13:42:05;;;;;;;7.68;4.07;;;22.20;67.70;;;;;;4871866;29;20577;-75
2021/06/06 13:44:31;;;;;;;7.95;3.45;;;22.40;67.30;;;;;;4853466;29;20050;-74
2021/06/06 13:46:59;;;;;;;7.28;3.47;;;22.40;67.50;;;;;;4867814;29;20470;-76
2021/06/06 13:49:26;;;;;;;6.35;2.60;;;22.50;67.40;;;;;;4887289;29;20044;-77
2021/06/06 13:51:53;;;;;;;3.33;2.25;;;22.60;66.90;;;;;;4853747;29;20060;-74
2021/06/06 13:54:19;;;;;;;5.30;2.90;;;22.50;66.70;;;;;;4887469;29;20469;-73
2021/06/06 13:56:45;;;;;;;4.30;2.58;;;22.40;66.70;;;;;;4896484;29;20382;-73
2021/06/06 13:59:11;;;;;;;7.00;2.85;;;22.50;66.60;;;;;;4879563;29;20044;-76
2021/06/06 14:01:40;;;;;;;3.85;2.50;;;22.40;66.40;;;;;;4873714;29;20044;-73
2021/06/06 14:04:07;;;;;;;7.88;2.53;;;22.40;66.70;;;;;;4886567;29;20047;-75
2021/06/06 14:06:33;;;;;;;4.28;2.70;;;22.40;66.80;;;;;;4885463;29;20520;-75
2021/06/06 14:08:59;;;;;;;3.97;2.47;;;22.30;66.60;;;;;;4884543;29;20099;-76
2021/06/06 14:11:31;;;;;;;6.38;2.55;;;22.30;66.80;;;;;;4886019;29;20592;-73
2021/06/06 14:13:58;;;;;;;3.53;2.60;;;22.40;66.80;;;;;;4886009;29;20037;-74
2021/06/06 14:16:26;;;;;;;4.25;2.88;;;22.30;67.20;;;;;;4883842;29;20041;-73
2021/06/06 14:18:55;;;;;;;5.93;2.90;;;22.10;68.00;;;;;;4885074;29;20044;-74
2021/06/06 14:21:27;;;;;;;5.90;2.78;;;22.10;68.10;;;;;;4869267;29;20040;-78
2021/06/06 14:23:58;;;;;;;3.95;2.85;;;22.20;68.10;;;;;;4868421;29;20041;-74
2021/06/06 14:26:26;;;;;;;7.68;2.90;;;22.10;67.90;;;;;;4885217;29;20451;-75
2021/06/06 14:28:54;;;;;;;5.30;2.88;;;22.20;68.20;;;;;;4896774;29;20036;-75
2021/06/06 14:31:22;;;;;;;6.53;3.13;;;22.10;69.10;;;;;;4880886;29;20045;-77
2021/06/06 14:33:50;;;;;;;4.50;3.05;;;22.00;69.70;;;;;;4880696;29;20128;-78
2021/06/06 14:36:17;;;;;;;7.30;3.15;;;22.00;69.10;;;;;;4897612;29;20412;-74
2021/06/06 14:38:43;;;;;;;4.32;3.10;;;22.00;69.70;;;;;;4864990;29;20518;-79
2021/06/06 14:41:10;;;;;;;4.50;3.13;;;22.10;69.70;;;;;;4880278;29;20036;-75
2021/06/06 14:43:36;;;;;;;4.05;3.10;;;22.10;69.70;;;;;;4896984;29;20139;-78
2021/06/06 14:46:03;;;;;;;5.65;3.40;;;22.20;69.60;;;;;;4865125;29;20040;-74
2021/06/06 14:48:31;;;;;;;9.50;4.55;;;22.20;69.60;;;;;;4897515;29;20092;-74
2021/06/06 14:50:59;;;;;;;8.38;3.53;;;22.10;69.50;;;;;;4880146;29;20137;-77
2021/06/06 14:53:27;;;;;;;6.72;3.97;;;22.20;69.70;;;;;;4896484;29;20483;-85
2021/06/06 14:55:54;;;;;;;5.85;3.30;;;22.20;69.80;;;;;;4879977;29;20037;-78
2021/06/06 14:58:22;;;;;;;6.20;3.70;;;22.30;70.50;;;;;;4888693;29;20047;-78
2021/06/06 15:00:53;;;;;;;8.57;4.28;;;22.30;70.70;;;;;;4878401;29;20052;-80
2021/06/06 15:03:21;;;;;;;5.63;3.50;;;22.40;70.80;;;;;;4846544;29;20039;-75
2021/06/06 15:05:47;;;;;;;5.20;3.40;;;22.40;70.70;;;;;;4881512;29;20059;-77
2021/06/06 15:08:16;;;;;;;5.88;3.60;;;22.50;70.10;;;;;;4867411;29;20123;-77
2021/06/06 15:10:46;;;;;;;6.40;4.93;;;22.50;70.10;;;;;;4867776;29;20044;-76
2021/06/06 15:13:20;;;;;;;8.90;5.03;;;22.40;70.30;;;;;;4846152;29;20141;-75
2021/06/06 15:15:49;;;;;;;7.82;4.38;;;22.50;69.80;;;;;;4880999;29;20064;-81
2021/06/06 15:18:25;;;;;;;8.10;4.72;;;22.50;69.70;;;;;;4882520;29;20033;-78
2021/06/06 15:21:04;;;;;;;5.72;3.80;;;22.50;70.00;;;;;;4870781;29;20458;-80
2021/06/06 15:23:32;;;;;;;5.63;3.03;;;22.50;69.20;;;;;;4887482;29;20131;-81
2021/06/06 15:26:05;;;;;;;5.30;3.45;;;22.50;69.00;;;;;;4889165;29;20572;-79
2021/06/06 15:28:39;;;;;;;5.53;4.03;;;22.60;68.60;;;;;;4890296;29;20033;-78
2021/06/06 15:31:08;;;;;;;8.48;4.03;;;22.50;68.30;;;;;;4874709;29;20055;-81
2021/06/06 15:33:34;;;;;;;6.40;3.83;;;22.50;68.30;;;;;;4889029;29;20036;-78
2021/06/06 15:36:01;;;;;;;6.68;3.33;;;22.50;68.50;;;;;;4891138;29;20072;-81
2021/06/06 15:38:30;;;;;;;6.03;3.50;;;22.50;68.30;;;;;;4889886;29;20033;-82
2021/06/06 15:41:01;;;;;;;6.13;2.97;;;22.60;68.30;;;;;;4890456;29;20079;-88
2021/06/06 15:43:29;;;;;;;3.67;3.08;;;22.60;67.90;;;;;;4872959;29;20469;-80
2021/06/06 15:45:56;;;;;;;4.18;3.17;;;22.50;68.00;;;;;;4890821;29;20515;-84
2021/06/06 15:48:23;;;;;;;6.22;5.10;;;22.50;68.30;;;;;;4872261;29;20036;-80
2021/06/06 15:50:50;;;;;;;5.95;4.18;;;22.50;68.50;;;;;;4873404;29;20041;-75
2021/06/06 15:53:17;;;;;;;4.80;3.85;;;22.50;68.90;;;;;;4889207;29;20087;-78
2021/06/06 15:55:57;;;;;;;3.92;3.20;;;22.50;69.00;;;;;;4874143;29;20037;-72
2021/06/06 15:58:23;;;;;;;7.30;3.40;;;22.60;69.40;;;;;;4891099;29;20140;-74
2021/06/06 16:00:50;;;;;;;5.68;3.72;;;22.70;71.40;;;;;;4866509;29;20037;-73
2021/06/06 16:03:27;;;;;;;6.38;4.28;;;22.80;71.90;;;;;;4864841;29;20401;-77
2021/06/06 16:05:53;;;;;;;7.07;3.75;;;22.80;71.40;;;;;;4873858;29;20565;-79
2021/06/06 16:08:20;;;;;;;5.93;3.97;;;22.80;70.80;;;;;;4873136;29;20119;-76
2021/06/06 16:10:46;;;;;;;5.03;4.20;;;22.70;70.30;;;;;;4874139;29;20049;-76
2021/06/06 16:13:12;;;;;;;4.72;4.20;;;22.80;70.00;;;;;;4889052;29;20493;-75
2021/06/06 16:15:38;;;;;;;5.70;4.10;;;22.80;69.60;;;;;;4889782;29;20176;-77
2021/06/06 16:18:05;;;;;;;8.10;4.75;;;22.70;69.40;;;;;;4890661;29;20059;-78
2021/06/06 16:20:32;;;;;;;9.32;4.63;;;22.80;69.30;;;;;;4873902;29;20033;-79
2021/06/06 16:23:01;;;;;;;6.82;5.05;;;22.70;69.30;;;;;;4880761;29;20425;-77
2021/06/06 16:25:27;;;;;;;5.65;3.97;;;22.70;69.20;;;;;;4864054;29;20057;-77
2021/06/06 16:27:55;;;;;;;5.40;4.32;;;22.70;68.80;;;;;;4880097;29;20033;-76
2021/06/06 16:30:27;;;;;;;5.10;4.43;;;22.80;69.00;;;;;;4863635;29;20037;-77
2021/06/06 16:32:54;;;;;;;4.85;4.35;;;22.70;69.20;;;;;;4885175;29;20040;-77
2021/06/06 16:35:22;;;;;;;8.38;4.18;;;22.80;69.00;;;;;;4899060;29;20033;-78
2021/06/06 16:37:48;;;;;;;6.63;4.75;;;22.70;69.10;;;;;;4899008;29;20037;-78
2021/06/06 16:40:16;;;;;;;7.78;5.03;;;22.60;69.40;;;;;;4899416;29;20085;-77
2021/06/06 16:42:42;;;;;;;7.43;4.40;;;22.70;69.20;;;;;;4898853;29;20044;-75
2021/06/06 16:45:11;;;;;;;6.43;4.18;;;22.70;69.10;;;;;;4866698;29;20040;-78
2021/06/06 16:47:38;;;;;;;5.30;4.00;;;22.60;69.20;;;;;;4898724;29;20472;-75
2021/06/06 16:50:06;;;;;;;4.80;3.95;;;22.70;68.70;;;;;;4866654;29;20047;-71
2021/06/06 16:52:33;;;;;;;6.93;4.68;;;22.70;68.80;;;;;;4898283;29;20581;-74
2021/06/06 16:55:04;;;;;;;3.88;3.55;;;22.70;68.70;;;;;;4866482;29;20450;-74
2021/06/06 16:57:30;;;;;;;5.20;4.55;;;22.70;68.40;;;;;;4881812;29;20103;-74
2021/06/06 16:59:56;;;;;;;7.47;4.20;;;22.70;68.20;;;;;;4898547;29;20068;-75
2021/06/06 17:02:24;;;;;;;4.72;3.90;;;22.70;68.10;;;;;;4898390;29;20075;-70
2021/06/06 17:04:50;;;;;;;9.07;4.30;;;22.70;67.70;;;;;;4881442;29;20091;-69
2021/06/06 17:07:16;;;;;;;11.30;4.50;;;22.80;68.40;;;;;;4898401;29;20040;-70
2021/06/06 17:09:42;;;;;;;8.75;4.20;;;22.70;69.60;;;;;;4881566;29;20048;-68
2021/06/06 17:12:08;;;;;;;8.80;5.05;;;22.60;69.80;;;;;;4898013;29;20084;-69
2021/06/06 17:14:34;;;;;;;7.80;4.30;;;22.60;70.20;;;;;;4881672;29;20033;-71
2021/06/06 17:17:00;;;;;;;8.73;4.18;;;22.70;69.90;;;;;;4898413;29;20195;-69
2021/06/06 17:19:26;;;;;;;8.88;4.53;;;22.70;69.80;;;;;;4898243;29;20041;-69
2021/06/06 17:21:52;;;;;;;9.38;5.15;;;22.80;70.10;;;;;;4881269;29;20044;-69
2021/06/06 17:24:33;;;;;;;7.05;4.97;;;22.80;69.90;;;;;;4843427;29;20115;-69
2021/06/06 17:26:59;;;;;;;8.88;4.82;;;22.90;69.90;;;;;;4901714;29;20121;-70
2021/06/06 17:29:25;;;;;;;10.93;5.22;;;22.90;69.80;;;;;;4898509;29;20085;-73
2021/06/06 17:31:51;;;;;;;6.95;4.65;;;22.90;69.50;;;;;;4916534;29;20122;-70
2021/06/06 17:34:19;;;;;;;9.80;5.50;;;22.90;69.70;;;;;;4884205;29;20040;-72
2021/06/06 17:36:45;;;;;;;8.18;5.30;;;22.90;70.00;;;;;;4898995;29;20180;-70
2021/06/06 17:39:14;;;;;;;9.30;4.97;;;22.90;69.80;;;;;;4916582;29;20463;-70
2021/06/06 17:41:40;;;;;;;7.35;5.35;;;22.80;70.20;;;;;;4884004;29;20039;-70
2021/06/06 17:44:09;;;;;;;10.40;7.93;;;22.80;70.30;;;;;;4900016;29;20493;-72
2021/06/06 17:46:35;;;;;;;7.60;5.85;;;22.70;70.80;;;;;;4883977;29;20038;-70
2021/06/06 17:49:01;;;;;;;11.90;5.88;;;22.70;70.90;;;;;;4916771;29;20048;-69
2021/06/06 17:51:27;;;;;;;7.32;5.43;;;22.70;71.10;;;;;;4896089;29;20067;-70
2021/06/06 17:53:54;;;;;;;10.85;6.20;;;22.70;71.30;;;;;;4896586;29;20084;-69
2021/06/06 17:56:20;;;;;;;8.43;6.85;;;22.60;71.60;;;;;;4897925;29;20123;-70
2021/06/06 17:58:46;;;;;;;8.20;6.43;;;22.60;71.80;;;;;;4896554;29;20560;-70
2021/06/06 18:01:18;;;;;;;8.52;6.35;;;22.60;72.90;;;;;;4896239;29;20040;-69
2021/06/06 18:03:44;;;;;;;9.18;6.65;;;22.60;72.20;;;;;;4880840;29;20036;-70
2021/06/06 18:06:11;;;;;;;13.85;7.28;;;22.60;72.60;;;;;;4896615;29;20040;-71
2021/06/06 18:08:37;;;;;;;10.60;6.90;;;22.60;72.80;;;;;;4897919;29;20408;-69
2021/06/06 18:11:05;;;;;;;12.73;7.20;;;22.60;72.80;;;;;;4896488;29;20064;-69